createdAt,value
2022-12-18T00:00:45.342Z,51.77
2022-12-18T00:03:11.983Z,56.13
2022-12-18T00:05:38.661Z,62.97
2022-12-18T00:08:09.338Z,49.60
2022-12-18T00:10:36.206Z,55.13
2022-12-18T00:13:05.281Z,52.60
2022-12-18T00:15:35.119Z,48.33
2022-12-18T00:18:03.610Z,54.47
2022-12-18T00:20:30.359Z,52.20
2022-12-18T00:22:56.965Z,45.90
2022-12-18T00:25:23.626Z,46.30
2022-12-18T00:27:50.576Z,42.67
2022-12-18T00:30:17.472Z,44.57
2022-12-18T00:32:44.080Z,46.77
2022-12-18T00:35:12.159Z,50.03
2022-12-18T00:37:38.747Z,45.40
2022-12-18T00:40:06.403Z,48.93
2022-12-18T00:42:51.541Z,43.87
2022-12-18T00:45:18.326Z,48.50
2022-12-18T00:47:44.928Z,51.10
2022-12-18T00:50:12.847Z,47.90
2022-12-18T00:52:39.434Z,50.07
2022-12-18T00:55:06.825Z,46.30
2022-12-18T00:57:33.418Z,41.43
2022-12-18T00:59:59.932Z,40.83
2022-12-18T01:02:26.588Z,48.07
2022-12-18T01:04:53.318Z,44.13
2022-12-18T01:07:21.227Z,45.00
2022-12-18T01:09:47.768Z,45.23
2022-12-18T01:12:14.296Z,48.60
2022-12-18T01:14:40.851Z,39.63
2022-12-18T01:17:07.413Z,41.63
2022-12-18T01:19:34.162Z,43.13
2022-12-18T01:22:00.821Z,39.57
2022-12-18T01:24:28.705Z,43.73
2022-12-18T01:26:55.256Z,37.10
2022-12-18T01:29:21.787Z,37.33
2022-12-18T01:31:48.350Z,47.13
2022-12-18T01:34:15.171Z,52.17
2022-12-18T01:36:41.700Z,51.87
2022-12-18T01:39:11.620Z,43.93
2022-12-18T01:41:58.706Z,49.37
2022-12-18T01:45:07.855Z,53.53
2022-12-18T01:47:39.308Z,50.30
2022-12-18T01:50:11.265Z,44.87
2022-12-18T01:52:39.312Z,43.10
2022-12-18T01:55:07.848Z,38.27
2022-12-18T01:57:36.588Z,49.00
2022-12-18T02:00:06.932Z,42.37
2022-12-18T02:02:33.838Z,41.33
2022-12-18T02:05:01.194Z,38.80
2022-12-18T02:07:36.958Z,42.90
2022-12-18T02:10:10.668Z,44.63
2022-12-18T02:12:45.978Z,50.40
2022-12-18T02:15:19.537Z,52.73
2022-12-18T02:17:51.056Z,38.23
2022-12-18T02:20:20.914Z,43.30
2022-12-18T02:23:01.888Z,38.27
2022-12-18T02:25:46.953Z,48.60
2022-12-18T02:28:17.841Z,52.30
2022-12-18T02:30:49.078Z,46.07
2022-12-18T02:33:16.772Z,43.85
2022-12-18T02:35:45.748Z,45.03
2022-12-18T02:38:14.658Z,37.65
2022-12-18T02:40:42.933Z,46.88
2022-12-18T02:43:11.036Z,44.07
2022-12-18T02:45:48.826Z,45.57
2022-12-18T02:48:16.188Z,41.07
2022-12-18T02:50:52.337Z,54.17
2022-12-18T02:53:25.596Z,46.33
2022-12-18T02:55:59.587Z,38.97
2022-12-18T02:58:35.255Z,45.63
2022-12-18T03:01:10.808Z,55.20
2022-12-18T03:03:42.355Z,43.20
2022-12-18T03:06:14.596Z,44.33
2022-12-18T03:08:45.994Z,47.27
2022-12-18T03:11:14.192Z,44.90
2022-12-18T03:13:46.034Z,42.37
2022-12-18T03:16:18.835Z,37.83
2022-12-18T03:18:50.306Z,40.03
2022-12-18T03:21:22.128Z,37.37
2022-12-18T03:23:52.302Z,40.17
2022-12-18T03:26:22.463Z,38.90
2022-12-18T03:28:53.768Z,40.67
2022-12-18T03:31:24.039Z,39.93
2022-12-18T03:33:53.922Z,42.70
2022-12-18T03:38:47.065Z,54.23
2022-12-18T03:41:20.696Z,74.63
2022-12-18T03:43:52.020Z,59.20
2022-12-18T03:46:28.099Z,55.07
2022-12-18T03:49:02.179Z,40.13
2022-12-18T03:51:35.701Z,47.80
2022-12-18T03:54:05.256Z,43.77
2022-12-18T03:56:36.301Z,41.70
2022-12-18T03:59:05.481Z,40.80
2022-12-18T04:01:36.984Z,41.90
2022-12-18T04:04:05.947Z,45.97
2022-12-18T04:06:33.099Z,39.78
2022-12-18T04:09:00.028Z,47.37
2022-12-18T04:11:26.893Z,36.27
2022-12-18T04:13:58.407Z,37.00
2022-12-18T04:16:25.074Z,39.57
2022-12-18T04:18:53.362Z,44.67
2022-12-18T04:21:20.310Z,38.90
2022-12-18T04:23:47.006Z,39.63
2022-12-18T04:26:13.597Z,37.57
2022-12-18T04:28:40.131Z,37.07
2022-12-18T04:31:06.792Z,42.13
2022-12-18T04:33:33.477Z,39.03
2022-12-18T04:36:01.352Z,36.87
2022-12-18T04:38:27.905Z,34.67
2022-12-18T04:40:54.442Z,37.33
2022-12-18T04:43:21.056Z,34.83
2022-12-18T04:45:47.652Z,40.80
2022-12-18T04:48:14.348Z,37.60
2022-12-18T04:50:40.890Z,36.90
2022-12-18T04:53:08.938Z,37.27
2022-12-18T04:55:36.588Z,35.88
2022-12-18T04:58:03.165Z,36.93
2022-12-18T05:00:29.854Z,35.70
2022-12-18T05:02:56.486Z,36.67
2022-12-18T05:05:23.256Z,33.67
2022-12-18T05:07:50.052Z,35.70
2022-12-18T05:10:18.033Z,36.57
2022-12-18T05:13:01.266Z,35.65
2022-12-18T05:15:29.551Z,32.57
2022-12-18T05:17:56.853Z,38.17
2022-12-18T05:20:23.480Z,34.20
2022-12-18T05:22:50.867Z,37.20
2022-12-18T05:25:19.319Z,40.47
2022-12-18T05:27:46.529Z,37.83
2022-12-18T05:30:16.983Z,38.47
2022-12-18T05:32:44.070Z,39.17
2022-12-18T05:35:11.789Z,37.60
2022-12-18T05:37:42.929Z,42.57
2022-12-18T05:40:11.345Z,38.40
2022-12-18T05:42:39.537Z,37.17
2022-12-18T05:45:07.283Z,37.13
2022-12-18T05:47:33.852Z,37.27
2022-12-18T05:50:00.415Z,36.37
2022-12-18T05:52:26.994Z,36.43
2022-12-18T05:54:53.545Z,41.23
2022-12-18T05:57:20.164Z,34.30
2022-12-18T05:59:48.084Z,35.97
2022-12-18T06:02:14.783Z,36.80
2022-12-18T06:04:41.467Z,36.23
2022-12-18T06:07:08.140Z,37.10
2022-12-18T06:09:34.744Z,34.13
2022-12-18T06:12:01.304Z,34.13
2022-12-18T06:14:28.131Z,35.97
2022-12-18T06:16:56.088Z,36.13
2022-12-18T06:19:22.689Z,36.07
2022-12-18T06:21:50.209Z,34.40
2022-12-18T06:24:17.116Z,37.57
2022-12-18T06:26:43.726Z,36.03
2022-12-18T06:29:10.410Z,34.97
2022-12-18T06:31:37.038Z,34.40
2022-12-18T06:34:05.697Z,35.73
2022-12-18T06:36:32.663Z,33.73
2022-12-18T06:38:59.494Z,33.37
2022-12-18T06:41:26.348Z,32.23
2022-12-18T06:43:58.153Z,35.43
2022-12-18T06:46:26.561Z,36.40
2022-12-18T06:48:53.705Z,33.93
2022-12-18T06:51:23.356Z,30.93
2022-12-18T06:53:50.735Z,31.33
2022-12-18T06:56:17.500Z,37.37
2022-12-18T06:58:44.576Z,32.07
2022-12-18T07:01:12.500Z,31.67
2022-12-18T07:03:40.246Z,33.40
2022-12-18T07:06:07.714Z,37.30
2022-12-18T07:08:35.649Z,34.27
2022-12-18T07:11:05.288Z,33.53
2022-12-18T07:13:31.912Z,33.08
2022-12-18T07:16:06.794Z,34.27
2022-12-18T07:18:35.318Z,32.77
2022-12-18T07:21:04.552Z,31.63
2022-12-18T07:23:32.774Z,36.45
2022-12-18T07:26:03.801Z,35.37
2022-12-18T07:28:30.344Z,34.40
2022-12-18T07:30:56.903Z,33.27
2022-12-18T07:33:23.508Z,32.93
2022-12-18T07:35:50.042Z,34.10
2022-12-18T07:38:16.598Z,33.17
2022-12-18T07:40:43.142Z,36.70
2022-12-18T07:43:11.030Z,35.00
2022-12-18T07:45:37.607Z,32.20
2022-12-18T07:48:04.469Z,27.87
2022-12-18T07:50:31.003Z,28.77
2022-12-18T07:52:57.607Z,36.17
2022-12-18T07:55:24.143Z,35.17
2022-12-18T07:57:52.676Z,35.27
2022-12-18T08:00:22.401Z,31.23
2022-12-18T08:02:49.018Z,31.83
2022-12-18T08:05:15.919Z,43.77
2022-12-18T08:07:42.477Z,40.57
2022-12-18T08:10:09.634Z,40.37
2022-12-18T08:12:36.254Z,37.97
2022-12-18T08:15:02.818Z,31.90
2022-12-18T08:17:31.001Z,34.53
2022-12-18T08:19:57.530Z,32.63
2022-12-18T08:22:24.132Z,29.10
2022-12-18T08:24:50.881Z,33.43
2022-12-18T08:27:32.747Z,35.67
2022-12-18T08:29:59.681Z,32.50
2022-12-18T08:32:26.285Z,33.70
2022-12-18T08:34:54.523Z,30.83
2022-12-18T08:37:21.090Z,35.57
2022-12-18T08:39:47.663Z,32.17
2022-12-18T08:42:32.920Z,30.77
2022-12-18T08:44:59.642Z,34.50
2022-12-18T08:47:27.003Z,30.13
2022-12-18T08:49:54.909Z,30.57
2022-12-18T08:52:21.492Z,30.73
2022-12-18T08:54:48.048Z,27.67
2022-12-18T08:57:14.680Z,32.90
2022-12-18T08:59:41.295Z,30.10
2022-12-18T09:02:09.446Z,28.73
2022-12-18T09:04:36.138Z,27.07
2022-12-18T09:07:04.062Z,30.50
2022-12-18T09:09:30.668Z,32.50
2022-12-18T09:11:57.223Z,29.67
2022-12-18T09:14:23.782Z,39.17
2022-12-18T09:16:50.401Z,37.47
2022-12-18T09:19:17.322Z,32.07
2022-12-18T09:21:48.099Z,30.10
2022-12-18T09:24:17.387Z,34.30
2022-12-18T09:26:46.991Z,28.50
2022-12-18T09:29:14.247Z,31.27
2022-12-18T09:31:41.527Z,32.67
2022-12-18T09:34:08.332Z,30.87
2022-12-18T09:36:34.929Z,30.83
2022-12-18T09:39:05.118Z,31.90
2022-12-18T09:41:45.466Z,31.27
2022-12-18T09:44:19.318Z,30.83
2022-12-18T09:46:49.593Z,30.67
2022-12-18T09:49:19.936Z,27.67
2022-12-18T09:51:52.098Z,32.20
2022-12-18T09:54:23.876Z,41.03
2022-12-18T09:56:51.967Z,32.70
2022-12-18T09:59:24.604Z,29.03
2022-12-18T10:01:51.392Z,30.10
2022-12-18T10:04:18.137Z,24.33
2022-12-18T10:06:51.114Z,28.87
2022-12-18T10:09:37.835Z,27.33
2022-12-18T10:12:15.067Z,28.80
2022-12-18T10:14:50.848Z,25.80
2022-12-18T10:17:26.205Z,29.07
2022-12-18T10:19:55.855Z,26.90
2022-12-18T10:22:32.877Z,26.52
2022-12-18T10:25:05.623Z,29.50
2022-12-18T10:27:35.422Z,28.80
2022-12-18T10:30:05.278Z,29.43
2022-12-18T10:32:33.958Z,27.40
2022-12-18T10:35:01.228Z,29.57
2022-12-18T10:37:29.920Z,27.70
2022-12-18T10:40:10.175Z,31.13
2022-12-18T10:42:38.382Z,31.00
2022-12-18T10:45:10.824Z,29.63
2022-12-18T10:47:42.556Z,31.47
2022-12-18T10:50:21.504Z,26.73
2022-12-18T10:52:55.693Z,28.83
2022-12-18T10:55:23.472Z,26.87
2022-12-18T10:57:52.024Z,29.77
2022-12-18T11:00:25.604Z,33.83
2022-12-18T11:02:53.357Z,28.20
2022-12-18T11:05:30.059Z,29.70
2022-12-18T11:07:57.619Z,28.67
2022-12-18T11:10:29.546Z,28.80
2022-12-18T11:13:11.028Z,27.50
2022-12-18T11:15:38.088Z,29.73
2022-12-18T11:18:05.118Z,28.90
2022-12-18T11:20:35.448Z,29.63
2022-12-18T11:23:04.809Z,50.38
2022-12-18T11:25:34.677Z,29.73
2022-12-18T11:28:05.809Z,32.23
2022-12-18T11:30:34.378Z,30.67
2022-12-18T11:33:06.380Z,32.58
2022-12-18T11:35:46.590Z,28.47
2022-12-18T11:38:22.062Z,28.90
2022-12-18T11:40:55.737Z,30.57
2022-12-18T11:43:30.041Z,31.07
2022-12-18T11:46:02.723Z,35.97
2022-12-18T11:48:34.173Z,30.87
2022-12-18T11:51:06.003Z,37.13
2022-12-18T11:53:32.709Z,29.20
2022-12-18T11:56:18.374Z,40.10
2022-12-18T11:58:50.555Z,35.27
2022-12-18T12:01:29.894Z,32.40
2022-12-18T12:04:45.209Z,41.00
2022-12-18T12:07:24.969Z,30.37
2022-12-18T12:10:01.780Z,28.87
2022-12-18T12:12:50.172Z,34.40
2022-12-18T12:15:33.198Z,34.60
2022-12-18T12:18:11.264Z,39.00
2022-12-18T12:20:50.510Z,35.27
2022-12-18T12:23:27.981Z,34.13
2022-12-18T12:26:01.153Z,35.70
2022-12-18T12:28:46.067Z,35.70
2022-12-18T12:31:27.895Z,38.17
2022-12-18T12:34:02.194Z,39.03
2022-12-18T12:36:36.281Z,32.77
2022-12-18T12:39:08.498Z,34.13
2022-12-18T12:41:57.838Z,33.13
2022-12-18T12:44:29.011Z,33.20
2022-12-18T12:47:01.453Z,34.10
2022-12-18T12:49:35.240Z,35.33
2022-12-18T12:52:11.908Z,37.13
2022-12-18T12:54:39.459Z,37.67
2022-12-18T12:57:10.460Z,33.27
2022-12-18T12:59:46.950Z,31.47
2022-12-18T13:02:23.323Z,37.00
2022-12-18T13:04:56.909Z,31.47
2022-12-18T13:07:29.585Z,31.77
2022-12-18T13:10:27.561Z,32.47
2022-12-18T13:12:57.841Z,31.07
2022-12-18T13:15:31.446Z,31.10
2022-12-18T13:18:21.369Z,29.70
2022-12-18T13:20:55.357Z,32.80
2022-12-18T13:23:34.163Z,32.17
2022-12-18T13:26:28.139Z,31.07
2022-12-18T13:28:58.257Z,35.33
2022-12-18T13:32:07.822Z,30.95
2022-12-18T13:34:36.551Z,31.03
2022-12-18T13:37:41.920Z,29.77
2022-12-18T13:40:53.522Z,31.07
2022-12-18T13:43:27.951Z,28.87
2022-12-18T13:46:06.678Z,27.93
2022-12-18T13:48:35.309Z,30.47
2022-12-18T13:51:06.637Z,29.50
2022-12-18T13:53:39.560Z,30.27
2022-12-18T13:56:07.148Z,29.07
2022-12-18T13:58:34.275Z,29.27
2022-12-18T14:01:03.030Z,33.60
2022-12-18T14:03:30.646Z,33.23
2022-12-18T14:06:01.109Z,30.40
2022-12-18T14:08:35.046Z,29.10
2022-12-18T14:11:04.189Z,26.70
2022-12-18T14:13:35.091Z,27.50
2022-12-18T14:16:04.431Z,30.42
2022-12-18T14:21:03.648Z,28.10
2022-12-18T14:23:34.822Z,30.37
2022-12-18T14:26:06.116Z,29.27
2022-12-18T14:28:33.030Z,27.67
2022-12-18T14:30:59.788Z,27.70
2022-12-18T14:33:28.681Z,27.30
2022-12-18T14:35:58.221Z,30.03
2022-12-18T14:38:28.789Z,29.17
2022-12-18T14:40:58.705Z,30.57
2022-12-18T14:43:25.499Z,28.20
2022-12-18T14:45:52.675Z,26.10
2022-12-18T14:48:23.450Z,28.53
2022-12-18T14:50:59.342Z,27.13
2022-12-18T14:53:35.219Z,28.07
2022-12-18T14:56:04.243Z,27.00
2022-12-18T14:58:31.017Z,29.73
2022-12-18T15:00:58.099Z,27.37
2022-12-18T15:03:24.797Z,28.33
2022-12-18T15:05:52.794Z,28.10
2022-12-18T15:08:32.478Z,29.80
2022-12-18T15:10:59.589Z,26.20
2022-12-18T15:13:27.664Z,28.73
2022-12-18T15:15:57.053Z,28.87
2022-12-18T15:18:32.843Z,28.05
2022-12-18T15:21:07.958Z,30.00
2022-12-18T15:23:39.007Z,32.10
2022-12-18T15:26:07.752Z,25.80
2022-12-18T15:28:40.497Z,26.70
2022-12-18T15:31:23.722Z,27.77
2022-12-18T15:34:21.255Z,26.97
2022-12-18T15:36:47.990Z,27.33
2022-12-18T15:39:14.765Z,28.93
2022-12-18T15:41:41.457Z,28.07
2022-12-18T15:44:26.400Z,25.23
2022-12-18T15:46:52.950Z,27.37
2022-12-18T15:49:19.563Z,27.13
2022-12-18T15:51:49.784Z,25.77
2022-12-18T15:54:38.978Z,26.27
2022-12-18T15:57:23.850Z,28.80
2022-12-18T15:59:53.790Z,27.90
2022-12-18T16:02:21.743Z,24.40
2022-12-18T16:04:48.490Z,26.83
2022-12-18T16:07:21.489Z,27.17
2022-12-18T16:09:52.210Z,25.43
2022-12-18T16:12:21.913Z,28.77
2022-12-18T16:14:48.920Z,24.85
2022-12-18T16:17:17.209Z,27.80
2022-12-18T16:19:43.875Z,27.50
2022-12-18T16:22:21.555Z,23.77
2022-12-18T16:24:48.795Z,27.57
2022-12-18T16:27:15.411Z,25.13
2022-12-18T16:29:42.040Z,28.60
2022-12-18T16:32:12.825Z,27.90
2022-12-18T16:34:40.806Z,26.00
2022-12-18T16:37:09.797Z,27.77
2022-12-18T16:39:37.857Z,28.48
2022-12-18T16:42:06.369Z,28.57
2022-12-18T16:44:33.120Z,25.73
2022-12-18T16:47:02.683Z,26.23
2022-12-18T16:49:29.778Z,25.90
2022-12-18T16:51:57.758Z,28.47
2022-12-18T16:54:24.983Z,28.17
2022-12-18T16:56:52.346Z,29.47
2022-12-18T16:59:19.206Z,30.70
2022-12-18T17:01:47.218Z,28.73
2022-12-18T17:04:14.914Z,26.40
2022-12-18T17:06:43.414Z,25.37
2022-12-18T17:09:15.152Z,26.70
2022-12-18T17:11:41.921Z,27.83
2022-12-18T17:14:10.596Z,30.60
2022-12-18T17:16:37.264Z,23.43
2022-12-18T17:19:05.414Z,26.90
2022-12-18T17:21:32.047Z,25.40
2022-12-18T17:24:00.399Z,26.47
2022-12-18T17:26:29.748Z,24.83
2022-12-18T17:28:57.561Z,26.60
2022-12-18T17:31:26.832Z,25.90
2022-12-18T17:33:53.891Z,24.77
2022-12-18T17:36:21.315Z,25.27
2022-12-18T17:38:51.255Z,26.57
2022-12-18T17:41:18.030Z,26.60
2022-12-18T17:43:51.101Z,27.37
2022-12-18T17:46:17.707Z,26.27
2022-12-18T17:48:44.269Z,29.17
2022-12-18T17:51:11.549Z,31.17
2022-12-18T17:53:41.815Z,33.50
2022-12-18T17:56:12.838Z,32.13
2022-12-18T17:58:40.365Z,32.13
2022-12-18T18:01:09.038Z,28.10
2022-12-18T18:03:41.443Z,31.47
2022-12-18T18:06:08.694Z,29.53
2022-12-18T18:08:35.925Z,32.33
2022-12-18T18:11:25.097Z,35.90
2022-12-18T18:14:00.763Z,29.55
2022-12-18T18:16:30.067Z,31.47
2022-12-18T18:18:58.361Z,32.25
2022-12-18T18:21:25.034Z,34.83
2022-12-18T18:23:52.424Z,30.93
2022-12-18T18:26:19.852Z,33.57
2022-12-18T18:28:46.639Z,30.90
2022-12-18T18:31:13.489Z,30.73
2022-12-18T18:33:42.009Z,28.77
2022-12-18T18:36:11.097Z,31.23
2022-12-18T18:38:37.955Z,32.37
2022-12-18T18:41:05.542Z,32.17
2022-12-18T18:43:32.151Z,32.10
2022-12-18T18:46:00.972Z,32.07
2022-12-18T18:48:30.671Z,27.83
2022-12-18T18:51:02.143Z,30.90
2022-12-18T18:56:34.514Z,30.80
2022-12-18T18:58:44.505Z,30.33
2022-12-18T19:01:14.196Z,31.63
2022-12-18T19:03:41.379Z,27.30
2022-12-18T19:06:14.258Z,31.17
2022-12-18T19:08:41.340Z,30.97
2022-12-18T19:11:35.918Z,30.97
2022-12-18T19:14:04.346Z,33.63
2022-12-18T19:16:31.785Z,34.57
2022-12-18T19:19:01.772Z,38.27
2022-12-18T19:21:34.062Z,39.17
2022-12-18T19:24:02.630Z,37.70
2022-12-18T19:26:29.860Z,37.27
2022-12-18T19:29:01.465Z,41.17
2022-12-18T19:31:33.347Z,39.03
2022-12-18T19:34:01.939Z,36.77
2022-12-18T19:36:31.001Z,38.07
2022-12-18T19:39:00.104Z,37.00
2022-12-18T19:41:31.282Z,37.50
2022-12-18T19:43:59.553Z,34.87
2022-12-18T19:46:26.196Z,35.00
2022-12-18T19:48:52.763Z,37.87
2022-12-18T19:51:21.417Z,35.70
2022-12-18T19:53:56.460Z,35.17
2022-12-18T19:56:26.708Z,36.63
2022-12-18T19:58:53.975Z,37.13
2022-12-18T20:01:22.528Z,33.80
2022-12-18T20:03:52.301Z,36.90
2022-12-18T20:06:24.977Z,39.90
2022-12-18T20:08:58.001Z,38.43
2022-12-18T20:11:26.973Z,39.10
2022-12-18T20:13:53.605Z,38.87
2022-12-18T20:16:20.503Z,40.47
2022-12-18T20:18:49.129Z,44.37
2022-12-18T20:21:16.346Z,40.37
2022-12-18T20:23:43.312Z,38.40
2022-12-18T20:26:11.929Z,37.23
2022-12-18T20:28:39.278Z,36.37
2022-12-18T20:31:13.863Z,38.88
2022-12-18T20:33:42.241Z,36.40
2022-12-18T20:36:13.698Z,36.20
2022-12-18T20:38:41.565Z,38.50
2022-12-18T20:41:10.734Z,39.03
2022-12-18T20:43:39.163Z,38.97
2022-12-18T20:46:09.093Z,37.37
2022-12-18T20:51:05.795Z,34.20
2022-12-18T20:53:33.097Z,37.17
2022-12-18T20:55:59.922Z,37.03
2022-12-18T20:58:26.529Z,35.50
2022-12-18T21:01:04.840Z,37.43
2022-12-18T21:03:31.574Z,34.83
2022-12-18T21:05:58.166Z,33.47
2022-12-18T21:08:24.990Z,32.80
2022-12-18T21:10:51.540Z,35.20
2022-12-18T21:13:20.836Z,34.40
2022-12-18T21:15:47.540Z,39.07
2022-12-18T21:18:15.429Z,34.40
2022-12-18T21:20:42.200Z,32.90
2022-12-18T21:23:15.720Z,33.47
2022-12-18T21:25:43.558Z,32.17
2022-12-18T21:28:10.082Z,37.27
2022-12-18T21:30:36.909Z,36.03
2022-12-18T21:33:03.632Z,32.40
2022-12-18T21:35:32.179Z,34.30
2022-12-18T21:37:58.891Z,32.53
2022-12-18T21:40:25.460Z,35.23
2022-12-18T21:43:11.278Z,32.90
2022-12-18T21:45:43.912Z,33.00
2022-12-18T21:48:10.500Z,32.13
2022-12-18T21:50:38.397Z,30.13
2022-12-18T21:53:04.916Z,35.03
2022-12-18T21:55:31.456Z,29.50
2022-12-18T21:57:58.027Z,36.27
2022-12-18T22:00:24.863Z,31.27
2022-12-18T22:03:17.101Z,30.67
2022-12-18T22:05:39.340Z,33.87
2022-12-18T22:08:06.671Z,32.93
2022-12-18T22:10:33.600Z,34.80
2022-12-18T22:13:00.229Z,31.43
2022-12-18T22:15:26.788Z,31.47
2022-12-18T22:17:57.558Z,32.53
2022-12-18T22:20:27.145Z,31.63
2022-12-18T22:22:55.052Z,31.50
2022-12-18T22:25:21.627Z,32.30
2022-12-18T22:28:08.160Z,31.27
2022-12-18T22:30:34.801Z,26.63
2022-12-18T22:33:02.274Z,30.00
2022-12-18T22:35:28.981Z,31.10
2022-12-18T22:37:58.377Z,33.10
2022-12-18T22:40:26.829Z,34.60
2022-12-18T22:42:53.614Z,33.80
2022-12-18T22:45:20.506Z,29.87
2022-12-18T22:47:47.117Z,35.57
2022-12-18T22:50:14.446Z,36.83
2022-12-18T22:52:41.065Z,32.30
2022-12-18T22:55:09.545Z,33.77
2022-12-18T22:57:36.253Z,30.83
2022-12-18T23:00:05.168Z,33.07
2022-12-18T23:02:31.851Z,30.90
2022-12-18T23:04:58.484Z,31.10
2022-12-18T23:07:25.041Z,32.27
2022-12-18T23:09:51.631Z,34.53
2022-12-18T23:12:27.528Z,34.13
2022-12-18T23:14:54.288Z,34.17
2022-12-18T23:17:20.815Z,32.90
2022-12-18T23:19:49.391Z,33.00
2022-12-18T23:22:16.246Z,35.43
2022-12-18T23:24:42.838Z,32.33
2022-12-18T23:27:11.798Z,31.40
2022-12-18T23:29:40.529Z,35.25
2022-12-18T23:32:07.252Z,33.40
2022-12-18T23:34:33.837Z,37.10
2022-12-18T23:37:01.071Z,35.70
2022-12-18T23:39:29.785Z,33.17
2022-12-18T23:41:56.838Z,34.67
2022-12-18T23:44:23.548Z,33.47
2022-12-18T23:46:51.576Z,33.53
2022-12-18T23:49:18.387Z,36.83
2022-12-18T23:51:44.970Z,48.70
2022-12-18T23:54:11.505Z,37.47
2022-12-18T23:56:38.067Z,34.17
2022-12-18T23:59:04.722Z,36.00
